sensor_id;sensor_type;location;lat;lon;timestamp;P1;durP1;ratioP1;P2;durP2;ratioP2
50219;SDS011;36110;51.536;7.562;2022-12-18T00:00:30;45.75;;;25.40;;
50219;SDS011;36110;51.536;7.562;2022-12-18T00:02:55;43.90;;;24.23;;
50219;SDS011;36110;51.536;7.562;2022-12-18T00:05:20;44.90;;;26.05;;
50219;SDS011;36110;51.536;7.562;2022-12-18T00:07:46;45.08;;;25.45;;
50219;SDS011;36110;51.536;7.562;2022-12-18T00:10:11;40.22;;;25.00;;
50219;SDS011;36110;51.536;7.562;2022-12-18T00:12:36;39.28;;;24.58;;
50219;SDS011;36110;51.536;7.562;2022-12-18T00:15:02;44.78;;;25.20;;
50219;SDS011;36110;51.536;7.562;2022-12-18T00:17:27;39.50;;;24.30;;
50219;SDS011;36110;51.536;7.562;2022-12-18T00:19:52;37.60;;;23.52;;
50219;SDS011;36110;51.536;7.562;2022-12-18T00:22:18;41.63;;;24.60;;
50219;SDS011;36110;51.536;7.562;2022-12-18T00:24:43;39.53;;;24.77;;
50219;SDS011;36110;51.536;7.562;2022-12-18T00:27:08;40.92;;;23.85;;
50219;SDS011;36110;51.536;7.562;2022-12-18T00:29:34;40.75;;;23.45;;
50219;SDS011;36110;51.536;7.562;2022-12-18T00:31:59;41.58;;;25.25;;
50219;SDS011;36110;51.536;7.562;2022-12-18T00:34:24;36.25;;;22.25;;
50219;SDS011;36110;51.536;7.562;2022-12-18T00:36:50;36.75;;;22.75;;
50219;SDS011;36110;51.536;7.562;2022-12-18T00:39:15;36.83;;;21.95;;
50219;SDS011;36110;51.536;7.562;2022-12-18T00:41:40;42.00;;;23.58;;
50219;SDS011;36110;51.536;7.562;2022-12-18T00:44:24;37.05;;;22.60;;
50219;SDS011;36110;51.536;7.562;2022-12-18T00:46:49;37.17;;;22.15;;
50219;SDS011;36110;51.536;7.562;2022-12-18T00:49:16;35.65;;;22.08;;
50219;SDS011;36110;51.536;7.562;2022-12-18T00:51:42;36.47;;;22.33;;
50219;SDS011;36110;51.536;7.562;2022-12-18T00:54:08;39.10;;;22.83;;
50219;SDS011;36110;51.536;7.562;2022-12-18T00:56:35;37.30;;;22.15;;
50219;SDS011;36110;51.536;7.562;2022-12-18T00:59:01;38.03;;;21.98;;
50219;SDS011;36110;51.536;7.562;2022-12-18T01:01:27;35.50;;;21.60;;
50219;SDS011;36110;51.536;7.562;2022-12-18T01:03:52;34.90;;;21.20;;
50219;SDS011;36110;51.536;7.562;2022-12-18T01:06:17;39.55;;;22.13;;
50219;SDS011;36110;51.536;7.562;2022-12-18T01:08:43;36.95;;;22.20;;
50219;SDS011;36110;51.536;7.562;2022-12-18T01:11:09;34.55;;;20.27;;
50219;SDS011;36110;51.536;7.562;2022-12-18T01:13:36;32.47;;;20.50;;
50219;SDS011;36110;51.536;7.562;2022-12-18T01:16:01;35.10;;;21.02;;
50219;SDS011;36110;51.536;7.562;2022-12-18T01:18:27;32.35;;;20.95;;
50219;SDS011;36110;51.536;7.562;2022-12-18T01:20:52;34.58;;;20.88;;
50219;SDS011;36110;51.536;7.562;2022-12-18T01:23:17;36.03;;;21.45;;
50219;SDS011;36110;51.536;7.562;2022-12-18T01:25:43;35.13;;;21.20;;
50219;SDS011;36110;51.536;7.562;2022-12-18T01:28:08;35.05;;;21.80;;
50219;SDS011;36110;51.536;7.562;2022-12-18T01:30:33;33.75;;;20.63;;
50219;SDS011;36110;51.536;7.562;2022-12-18T01:32:59;34.10;;;20.50;;
50219;SDS011;36110;51.536;7.562;2022-12-18T01:35:24;32.78;;;19.92;;
50219;SDS011;36110;51.536;7.562;2022-12-18T01:37:53;36.00;;;20.63;;
50219;SDS011;36110;51.536;7.562;2022-12-18T01:40:19;33.42;;;20.38;;
50219;SDS011;36110;51.536;7.562;2022-12-18T01:42:44;33.83;;;20.67;;
50219;SDS011;36110;51.536;7.562;2022-12-18T01:47:42;33.83;;;19.55;;
50219;SDS011;36110;51.536;7.562;2022-12-18T01:52:51;37.60;;;20.58;;
50219;SDS011;36110;51.536;7.562;2022-12-18T01:55:19;29.92;;;18.98;;
50219;SDS011;36110;51.536;7.562;2022-12-18T01:57:46;33.88;;;19.73;;
50219;SDS011;36110;51.536;7.562;2022-12-18T02:00:13;33.10;;;19.85;;
50219;SDS011;36110;51.536;7.562;2022-12-18T02:02:41;30.48;;;19.20;;
50219;SDS011;36110;51.536;7.562;2022-12-18T02:05:08;34.75;;;20.10;;
50219;SDS011;36110;51.536;7.562;2022-12-18T02:10:05;33.17;;;20.52;;
50219;SDS011;36110;51.536;7.562;2022-12-18T02:12:45;30.48;;;18.42;;
50219;SDS011;36110;51.536;7.562;2022-12-18T02:15:16;31.92;;;18.65;;
50219;SDS011;36110;51.536;7.562;2022-12-18T02:18:05;30.15;;;17.98;;
50219;SDS011;36110;51.536;7.562;2022-12-18T02:20:36;30.77;;;18.20;;
50219;SDS011;36110;51.536;7.562;2022-12-18T02:23:12;31.40;;;19.08;;
50219;SDS011;36110;51.536;7.562;2022-12-18T02:28:19;31.25;;;18.70;;
50219;SDS011;36110;51.536;7.562;2022-12-18T02:30:47;29.00;;;17.48;;
50219;SDS011;36110;51.536;7.562;2022-12-18T02:33:13;30.85;;;18.95;;
50219;SDS011;36110;51.536;7.562;2022-12-18T02:35:39;30.38;;;18.20;;
50219;SDS011;36110;51.536;7.562;2022-12-18T02:38:05;30.15;;;18.25;;
50219;SDS011;36110;51.536;7.562;2022-12-18T02:40:31;36.15;;;19.10;;
50219;SDS011;36110;51.536;7.562;2022-12-18T02:43:02;31.23;;;18.55;;
50219;SDS011;36110;51.536;7.562;2022-12-18T02:45:47;28.35;;;17.15;;
50219;SDS011;36110;51.536;7.562;2022-12-18T02:48:13;28.77;;;17.33;;
50219;SDS011;36110;51.536;7.562;2022-12-18T02:50:41;28.27;;;17.73;;
50219;SDS011;36110;51.536;7.562;2022-12-18T03:01:25;30.27;;;18.08;;
50219;SDS011;36110;51.536;7.562;2022-12-18T03:03:57;28.73;;;17.65;;
50219;SDS011;36110;51.536;7.562;2022-12-18T03:06:28;28.40;;;18.00;;
50219;SDS011;36110;51.536;7.562;2022-12-18T03:09:00;29.85;;;18.40;;
50219;SDS011;36110;51.536;7.562;2022-12-18T03:11:30;26.70;;;17.15;;
50219;SDS011;36110;51.536;7.562;2022-12-18T03:14:16;30.02;;;17.55;;
50219;SDS011;36110;51.536;7.562;2022-12-18T03:16:44;27.98;;;17.00;;
50219;SDS011;36110;51.536;7.562;2022-12-18T03:19:11;27.77;;;17.45;;
50219;SDS011;36110;51.536;7.562;2022-12-18T03:21:47;29.10;;;17.02;;
50219;SDS011;36110;51.536;7.562;2022-12-18T03:24:15;27.88;;;16.40;;
50219;SDS011;36110;51.536;7.562;2022-12-18T03:26:43;28.33;;;16.33;;
50219;SDS011;36110;51.536;7.562;2022-12-18T03:29:13;26.70;;;15.60;;
50219;SDS011;36110;51.536;7.562;2022-12-18T03:31:42;25.55;;;15.75;;
50219;SDS011;36110;51.536;7.562;2022-12-18T03:34:13;27.48;;;16.42;;
50219;SDS011;36110;51.536;7.562;2022-12-18T03:36:41;28.60;;;17.17;;
50219;SDS011;36110;51.536;7.562;2022-12-18T03:39:06;26.48;;;15.88;;
50219;SDS011;36110;51.536;7.562;2022-12-18T03:41:33;27.85;;;16.50;;
50219;SDS011;36110;51.536;7.562;2022-12-18T03:44:13;24.23;;;16.27;;
50219;SDS011;36110;51.536;7.562;2022-12-18T03:49:17;29.08;;;17.50;;
50219;SDS011;36110;51.536;7.562;2022-12-18T03:52:11;30.25;;;16.98;;
50219;SDS011;36110;51.536;7.562;2022-12-18T03:54:37;29.70;;;17.05;;
50219;SDS011;36110;51.536;7.562;2022-12-18T03:57:08;27.05;;;17.10;;
50219;SDS011;36110;51.536;7.562;2022-12-18T03:59:37;27.98;;;15.80;;
50219;SDS011;36110;51.536;7.562;2022-12-18T04:02:02;30.13;;;15.90;;
50219;SDS011;36110;51.536;7.562;2022-12-18T04:04:29;28.52;;;16.52;;
50219;SDS011;36110;51.536;7.562;2022-12-18T04:06:55;26.88;;;16.27;;
50219;SDS011;36110;51.536;7.562;2022-12-18T04:09:21;26.30;;;16.98;;
50219;SDS011;36110;51.536;7.562;2022-12-18T04:11:46;25.50;;;15.18;;
50219;SDS011;36110;51.536;7.562;2022-12-18T04:14:12;24.88;;;15.48;;
50219;SDS011;36110;51.536;7.562;2022-12-18T04:16:39;26.05;;;15.60;;
50219;SDS011;36110;51.536;7.562;2022-12-18T04:19:04;26.23;;;15.27;;
50219;SDS011;36110;51.536;7.562;2022-12-18T04:21:29;25.88;;;16.42;;
50219;SDS011;36110;51.536;7.562;2022-12-18T04:23:55;23.67;;;15.18;;
50219;SDS011;36110;51.536;7.562;2022-12-18T04:26:20;25.65;;;15.63;;
50219;SDS011;36110;51.536;7.562;2022-12-18T04:28:45;27.23;;;15.80;;
50219;SDS011;36110;51.536;7.562;2022-12-18T04:31:11;25.35;;;15.50;;
50219;SDS011;36110;51.536;7.562;2022-12-18T04:33:37;25.02;;;14.50;;
50219;SDS011;36110;51.536;7.562;2022-12-18T04:36:02;25.52;;;15.77;;
50219;SDS011;36110;51.536;7.562;2022-12-18T04:38:28;24.13;;;14.77;;
50219;SDS011;36110;51.536;7.562;2022-12-18T04:40:53;29.75;;;17.98;;
50219;SDS011;36110;51.536;7.562;2022-12-18T04:43:18;25.77;;;15.35;;
50219;SDS011;36110;51.536;7.562;2022-12-18T04:45:44;25.48;;;14.70;;
50219;SDS011;36110;51.536;7.562;2022-12-18T04:48:09;23.33;;;14.68;;
50219;SDS011;36110;51.536;7.562;2022-12-18T04:50:34;22.83;;;14.57;;
50219;SDS011;36110;51.536;7.562;2022-12-18T04:53:00;24.38;;;14.65;;
50219;SDS011;36110;51.536;7.562;2022-12-18T04:55:25;23.98;;;14.27;;
50219;SDS011;36110;51.536;7.562;2022-12-18T04:57:51;22.55;;;14.50;;
50219;SDS011;36110;51.536;7.562;2022-12-18T05:00:16;25.23;;;14.80;;
50219;SDS011;36110;51.536;7.562;2022-12-18T05:02:42;26.20;;;14.68;;
50219;SDS011;36110;51.536;7.562;2022-12-18T05:05:07;24.67;;;15.20;;
50219;SDS011;36110;51.536;7.562;2022-12-18T05:07:33;23.75;;;14.77;;
50219;SDS011;36110;51.536;7.562;2022-12-18T05:09:58;23.80;;;14.52;;
50219;SDS011;36110;51.536;7.562;2022-12-18T05:12:23;25.83;;;14.60;;
50219;SDS011;36110;51.536;7.562;2022-12-18T05:14:49;23.58;;;14.43;;
50219;SDS011;36110;51.536;7.562;2022-12-18T05:17:14;23.27;;;14.27;;
50219;SDS011;36110;51.536;7.562;2022-12-18T05:19:39;24.30;;;14.60;;
50219;SDS011;36110;51.536;7.562;2022-12-18T05:22:05;22.70;;;13.77;;
50219;SDS011;36110;51.536;7.562;2022-12-18T05:24:30;22.40;;;14.02;;
50219;SDS011;36110;51.536;7.562;2022-12-18T05:26:55;23.23;;;14.10;;
50219;SDS011;36110;51.536;7.562;2022-12-18T05:29:21;23.35;;;13.57;;
50219;SDS011;36110;51.536;7.562;2022-12-18T05:31:46;24.40;;;14.10;;
50219;SDS011;36110;51.536;7.562;2022-12-18T05:34:11;22.70;;;13.90;;
50219;SDS011;36110;51.536;7.562;2022-12-18T05:36:37;21.92;;;13.90;;
50219;SDS011;36110;51.536;7.562;2022-12-18T05:39:02;21.95;;;13.18;;
50219;SDS011;36110;51.536;7.562;2022-12-18T05:41:28;22.80;;;13.10;;
50219;SDS011;36110;51.536;7.562;2022-12-18T05:43:53;21.55;;;12.52;;
50219;SDS011;36110;51.536;7.562;2022-12-18T05:46:19;27.77;;;15.52;;
50219;SDS011;36110;51.536;7.562;2022-12-18T05:48:44;28.75;;;17.25;;
50219;SDS011;36110;51.536;7.562;2022-12-18T05:51:13;22.25;;;13.55;;
50219;SDS011;36110;51.536;7.562;2022-12-18T05:53:40;20.50;;;12.60;;
50219;SDS011;36110;51.536;7.562;2022-12-18T05:56:06;22.00;;;14.02;;
50219;SDS011;36110;51.536;7.562;2022-12-18T05:58:33;22.92;;;13.32;;
50219;SDS011;36110;51.536;7.562;2022-12-18T06:01:05;21.00;;;13.32;;
50219;SDS011;36110;51.536;7.562;2022-12-18T06:03:41;23.33;;;13.60;;
50219;SDS011;36110;51.536;7.562;2022-12-18T06:06:14;21.45;;;13.68;;
50219;SDS011;36110;51.536;7.562;2022-12-18T06:08:40;22.20;;;13.43;;
50219;SDS011;36110;51.536;7.562;2022-12-18T06:11:06;20.05;;;12.35;;
50219;SDS011;36110;51.536;7.562;2022-12-18T06:13:31;27.77;;;16.27;;
50219;SDS011;36110;51.536;7.562;2022-12-18T06:15:57;24.00;;;13.68;;
50219;SDS011;36110;51.536;7.562;2022-12-18T06:18:22;42.75;;;24.30;;
50219;SDS011;36110;51.536;7.562;2022-12-18T06:20:57;39.00;;;20.77;;
50219;SDS011;36110;51.536;7.562;2022-12-18T06:23:23;22.08;;;13.32;;
50219;SDS011;36110;51.536;7.562;2022-12-18T06:25:48;19.95;;;12.15;;
50219;SDS011;36110;51.536;7.562;2022-12-18T06:28:14;21.88;;;12.68;;
50219;SDS011;36110;51.536;7.562;2022-12-18T06:30:39;19.95;;;12.25;;
50219;SDS011;36110;51.536;7.562;2022-12-18T06:33:04;20.38;;;12.70;;
50219;SDS011;36110;51.536;7.562;2022-12-18T06:35:31;20.63;;;13.10;;
50219;SDS011;36110;51.536;7.562;2022-12-18T06:37:57;18.65;;;12.05;;
50219;SDS011;36110;51.536;7.562;2022-12-18T06:40:22;20.35;;;12.57;;
50219;SDS011;36110;51.536;7.562;2022-12-18T06:42:47;18.67;;;12.15;;
50219;SDS011;36110;51.536;7.562;2022-12-18T06:45:16;22.27;;;13.40;;
50219;SDS011;36110;51.536;7.562;2022-12-18T06:47:41;20.52;;;13.23;;
50219;SDS011;36110;51.536;7.562;2022-12-18T06:50:06;20.38;;;11.98;;
50219;SDS011;36110;51.536;7.562;2022-12-18T06:52:32;20.67;;;12.23;;
50219;SDS011;36110;51.536;7.562;2022-12-18T06:54:58;20.77;;;12.35;;
50219;SDS011;36110;51.536;7.562;2022-12-18T06:57:23;18.95;;;12.05;;
50219;SDS011;36110;51.536;7.562;2022-12-18T06:59:49;20.55;;;11.98;;
50219;SDS011;36110;51.536;7.562;2022-12-18T07:02:14;21.45;;;12.40;;
50219;SDS011;36110;51.536;7.562;2022-12-18T07:04:39;19.30;;;12.02;;
50219;SDS011;36110;51.536;7.562;2022-12-18T07:07:04;20.23;;;11.93;;
50219;SDS011;36110;51.536;7.562;2022-12-18T07:09:30;19.20;;;12.15;;
50219;SDS011;36110;51.536;7.562;2022-12-18T07:11:55;17.15;;;11.07;;
50219;SDS011;36110;51.536;7.562;2022-12-18T07:14:20;19.20;;;10.98;;
50219;SDS011;36110;51.536;7.562;2022-12-18T07:16:46;38.63;;;22.38;;
50219;SDS011;36110;51.536;7.562;2022-12-18T07:19:11;19.58;;;12.52;;
50219;SDS011;36110;51.536;7.562;2022-12-18T07:21:36;19.83;;;12.00;;
50219;SDS011;36110;51.536;7.562;2022-12-18T07:24:02;37.13;;;21.90;;
50219;SDS011;36110;51.536;7.562;2022-12-18T07:26:27;19.40;;;11.95;;
50219;SDS011;36110;51.536;7.562;2022-12-18T07:28:54;18.67;;;12.15;;
50219;SDS011;36110;51.536;7.562;2022-12-18T07:31:21;18.52;;;12.02;;
50219;SDS011;36110;51.536;7.562;2022-12-18T07:33:46;18.33;;;11.30;;
50219;SDS011;36110;51.536;7.562;2022-12-18T07:36:13;17.10;;;11.13;;
50219;SDS011;36110;51.536;7.562;2022-12-18T07:38:38;17.15;;;10.80;;
50219;SDS011;36110;51.536;7.562;2022-12-18T07:41:05;19.33;;;12.07;;
50219;SDS011;36110;51.536;7.562;2022-12-18T07:43:32;18.08;;;11.35;;
50219;SDS011;36110;51.536;7.562;2022-12-18T07:45:57;18.20;;;11.50;;
50219;SDS011;36110;51.536;7.562;2022-12-18T07:48:23;40.83;;;23.95;;
50219;SDS011;36110;51.536;7.562;2022-12-18T07:50:48;20.85;;;12.02;;
50219;SDS011;36110;51.536;7.562;2022-12-18T07:53:14;18.92;;;10.63;;
50219;SDS011;36110;51.536;7.562;2022-12-18T07:55:40;17.98;;;11.32;;
50219;SDS011;36110;51.536;7.562;2022-12-18T07:58:06;17.98;;;11.18;;
50219;SDS011;36110;51.536;7.562;2022-12-18T08:00:32;32.28;;;18.13;;
50219;SDS011;36110;51.536;7.562;2022-12-18T08:02:57;19.90;;;12.05;;
50219;SDS011;36110;51.536;7.562;2022-12-18T08:05:22;18.48;;;11.50;;
50219;SDS011;36110;51.536;7.562;2022-12-18T08:07:48;18.73;;;11.25;;
50219;SDS011;36110;51.536;7.562;2022-12-18T08:10:14;17.08;;;10.82;;
50219;SDS011;36110;51.536;7.562;2022-12-18T08:12:39;25.35;;;15.40;;
50219;SDS011;36110;51.536;7.562;2022-12-18T08:15:05;18.05;;;11.68;;
50219;SDS011;36110;51.536;7.562;2022-12-18T08:17:30;16.10;;;10.52;;
50219;SDS011;36110;51.536;7.562;2022-12-18T08:19:56;15.30;;;10.80;;
50219;SDS011;36110;51.536;7.562;2022-12-18T08:22:21;16.95;;;9.98;;
50219;SDS011;36110;51.536;7.562;2022-12-18T08:24:47;16.60;;;10.80;;
50219;SDS011;36110;51.536;7.562;2022-12-18T08:27:12;17.88;;;11.43;;
50219;SDS011;36110;51.536;7.562;2022-12-18T08:29:37;16.30;;;10.73;;
50219;SDS011;36110;51.536;7.562;2022-12-18T08:32:03;17.15;;;10.90;;
50219;SDS011;36110;51.536;7.562;2022-12-18T08:34:28;18.52;;;10.75;;
50219;SDS011;36110;51.536;7.562;2022-12-18T08:36:53;16.65;;;11.30;;
50219;SDS011;36110;51.536;7.562;2022-12-18T08:39:19;22.42;;;13.50;;
50219;SDS011;36110;51.536;7.562;2022-12-18T08:41:44;27.83;;;16.48;;
50219;SDS011;36110;51.536;7.562;2022-12-18T08:44:29;32.50;;;17.77;;
50219;SDS011;36110;51.536;7.562;2022-12-18T08:47:04;15.38;;;10.15;;
50219;SDS011;36110;51.536;7.562;2022-12-18T08:49:30;17.27;;;9.98;;
50219;SDS011;36110;51.536;7.562;2022-12-18T08:51:56;16.52;;;10.38;;
50219;SDS011;36110;51.536;7.562;2022-12-18T08:54:25;15.63;;;10.02;;
50219;SDS011;36110;51.536;7.562;2022-12-18T08:56:50;15.57;;;9.80;;
50219;SDS011;36110;51.536;7.562;2022-12-18T08:59:16;16.20;;;10.23;;
50219;SDS011;36110;51.536;7.562;2022-12-18T09:01:42;15.23;;;9.85;;
50219;SDS011;36110;51.536;7.562;2022-12-18T09:04:07;15.63;;;9.80;;
50219;SDS011;36110;51.536;7.562;2022-12-18T09:06:34;15.90;;;9.98;;
50219;SDS011;36110;51.536;7.562;2022-12-18T09:08:59;15.68;;;10.02;;
50219;SDS011;36110;51.536;7.562;2022-12-18T09:11:25;15.88;;;9.85;;
50219;SDS011;36110;51.536;7.562;2022-12-18T09:13:52;15.85;;;10.68;;
50219;SDS011;36110;51.536;7.562;2022-12-18T09:16:18;14.10;;;9.27;;
50219;SDS011;36110;51.536;7.562;2022-12-18T09:18:44;15.18;;;9.60;;
50219;SDS011;36110;51.536;7.562;2022-12-18T09:21:13;16.00;;;10.30;;
50219;SDS011;36110;51.536;7.562;2022-12-18T09:23:42;14.43;;;9.57;;
50219;SDS011;36110;51.536;7.562;2022-12-18T09:26:07;16.92;;;10.00;;
50219;SDS011;36110;51.536;7.562;2022-12-18T09:28:32;20.48;;;12.90;;
50219;SDS011;36110;51.536;7.562;2022-12-18T09:30:58;15.00;;;9.73;;
50219;SDS011;36110;51.536;7.562;2022-12-18T09:33:23;15.05;;;9.38;;
50219;SDS011;36110;51.536;7.562;2022-12-18T09:35:49;13.82;;;9.18;;
50219;SDS011;36110;51.536;7.562;2022-12-18T09:38:15;15.90;;;9.45;;
50219;SDS011;36110;51.536;7.562;2022-12-18T09:40:44;13.40;;;8.80;;
50219;SDS011;36110;51.536;7.562;2022-12-18T09:43:18;17.85;;;10.63;;
50219;SDS011;36110;51.536;7.562;2022-12-18T09:45:51;38.35;;;24.63;;
50219;SDS011;36110;51.536;7.562;2022-12-18T09:48:23;27.65;;;17.33;;
50219;SDS011;36110;51.536;7.562;2022-12-18T09:50:51;34.10;;;18.42;;
50219;SDS011;36110;51.536;7.562;2022-12-18T09:53:22;46.15;;;26.60;;
50219;SDS011;36110;51.536;7.562;2022-12-18T09:55:50;16.30;;;10.65;;
50219;SDS011;36110;51.536;7.562;2022-12-18T09:58:20;14.60;;;9.48;;
50219;SDS011;36110;51.536;7.562;2022-12-18T10:01:00;16.45;;;9.55;;
50219;SDS011;36110;51.536;7.562;2022-12-18T10:03:25;13.90;;;9.00;;
50219;SDS011;36110;51.536;7.562;2022-12-18T10:13:45;14.50;;;9.32;;
50219;SDS011;36110;51.536;7.562;2022-12-18T10:16:15;12.13;;;8.48;;
50219;SDS011;36110;51.536;7.562;2022-12-18T10:24:24;13.90;;;8.98;;
50219;SDS011;36110;51.536;7.562;2022-12-18T10:27:14;27.67;;;17.30;;
50219;SDS011;36110;51.536;7.562;2022-12-18T10:29:42;16.83;;;10.27;;
50219;SDS011;36110;51.536;7.562;2022-12-18T10:32:12;30.55;;;19.05;;
50219;SDS011;36110;51.536;7.562;2022-12-18T10:34:40;15.68;;;9.93;;
50219;SDS011;36110;51.536;7.562;2022-12-18T10:37:06;35.53;;;21.92;;
50219;SDS011;36110;51.536;7.562;2022-12-18T10:39:38;14.07;;;8.98;;
50219;SDS011;36110;51.536;7.562;2022-12-18T10:42:36;33.80;;;20.85;;
50219;SDS011;36110;51.536;7.562;2022-12-18T10:45:28;16.02;;;9.57;;
50219;SDS011;36110;51.536;7.562;2022-12-18T10:47:47;31.58;;;18.75;;
50219;SDS011;36110;51.536;7.562;2022-12-18T10:50:22;32.95;;;20.85;;
50219;SDS011;36110;51.536;7.562;2022-12-18T10:52:55;16.23;;;9.55;;
50219;SDS011;36110;51.536;7.562;2022-12-18T10:55:27;13.95;;;9.80;;
50219;SDS011;36110;51.536;7.562;2022-12-18T10:58:23;13.15;;;8.82;;
50219;SDS011;36110;51.536;7.562;2022-12-18T11:06:24;22.65;;;13.38;;
50219;SDS011;36110;51.536;7.562;2022-12-18T11:11:24;15.95;;;9.20;;
50219;SDS011;36110;51.536;7.562;2022-12-18T11:13:52;18.13;;;11.35;;
50219;SDS011;36110;51.536;7.562;2022-12-18T11:16:22;20.15;;;11.23;;
50219;SDS011;36110;51.536;7.562;2022-12-18T11:18:48;20.35;;;11.88;;
50219;SDS011;36110;51.536;7.562;2022-12-18T11:21:14;18.88;;;11.00;;
50219;SDS011;36110;51.536;7.562;2022-12-18T11:23:50;17.52;;;10.70;;
50219;SDS011;36110;51.536;7.562;2022-12-18T11:26:16;13.05;;;8.52;;
50219;SDS011;36110;51.536;7.562;2022-12-18T11:28:52;25.83;;;13.77;;
50219;SDS011;36110;51.536;7.562;2022-12-18T11:31:33;25.63;;;13.10;;
50219;SDS011;36110;51.536;7.562;2022-12-18T11:34:12;24.27;;;11.85;;
50219;SDS011;36110;51.536;7.562;2022-12-18T11:36:46;20.67;;;13.18;;
50219;SDS011;36110;51.536;7.562;2022-12-18T11:39:17;20.73;;;12.13;;
50219;SDS011;36110;51.536;7.562;2022-12-18T11:41:52;11.60;;;8.10;;
50219;SDS011;36110;51.536;7.562;2022-12-18T11:44:42;11.52;;;8.38;;
50219;SDS011;36110;51.536;7.562;2022-12-18T11:47:23;20.25;;;12.68;;
50219;SDS011;36110;51.536;7.562;2022-12-18T11:49:50;18.20;;;12.40;;
50219;SDS011;36110;51.536;7.562;2022-12-18T11:52:21;23.13;;;14.32;;
50219;SDS011;36110;51.536;7.562;2022-12-18T11:54:52;12.25;;;8.50;;
50219;SDS011;36110;51.536;7.562;2022-12-18T12:00:21;20.52;;;12.27;;
50219;SDS011;36110;51.536;7.562;2022-12-18T12:05:49;16.70;;;9.85;;
50219;SDS011;36110;51.536;7.562;2022-12-18T12:21:41;23.23;;;13.07;;
50219;SDS011;36110;51.536;7.562;2022-12-18T12:29:36;21.85;;;12.95;;
50219;SDS011;36110;51.536;7.562;2022-12-18T12:35:03;18.85;;;11.55;;
50219;SDS011;36110;51.536;7.562;2022-12-18T12:37:54;22.15;;;12.75;;
50219;SDS011;36110;51.536;7.562;2022-12-18T12:40:41;20.77;;;12.82;;
50219;SDS011;36110;51.536;7.562;2022-12-18T12:45:49;20.88;;;13.10;;
50219;SDS011;36110;51.536;7.562;2022-12-18T12:48:21;21.17;;;13.50;;
50219;SDS011;36110;51.536;7.562;2022-12-18T12:50:48;20.75;;;12.13;;
50219;SDS011;36110;51.536;7.562;2022-12-18T12:53:18;20.13;;;12.45;;
50219;SDS011;36110;51.536;7.562;2022-12-18T12:55:48;15.60;;;10.68;;
50219;SDS011;36110;51.536;7.562;2022-12-18T12:58:19;21.90;;;11.63;;
50219;SDS011;36110;51.536;7.562;2022-12-18T13:09:09;19.95;;;11.30;;
50219;SDS011;36110;51.536;7.562;2022-12-18T13:14:29;17.50;;;11.75;;
50219;SDS011;36110;51.536;7.562;2022-12-18T13:17:14;13.30;;;8.98;;
50219;SDS011;36110;51.536;7.562;2022-12-18T13:19:40;15.85;;;10.75;;
50219;SDS011;36110;51.536;7.562;2022-12-18T13:22:12;16.02;;;10.07;;
50219;SDS011;36110;51.536;7.562;2022-12-18T13:24:46;16.58;;;9.95;;
50219;SDS011;36110;51.536;7.562;2022-12-18T13:35:50;21.15;;;12.82;;
50219;SDS011;36110;51.536;7.562;2022-12-18T13:40:56;20.08;;;12.95;;
50219;SDS011;36110;51.536;7.562;2022-12-18T13:43:23;18.95;;;12.30;;
50219;SDS011;36110;51.536;7.562;2022-12-18T13:48:27;14.75;;;10.23;;
50219;SDS011;36110;51.536;7.562;2022-12-18T13:50:57;20.00;;;12.38;;
50219;SDS011;36110;51.536;7.562;2022-12-18T13:53:26;18.70;;;12.27;;
50219;SDS011;36110;51.536;7.562;2022-12-18T13:55:56;21.67;;;12.90;;
50219;SDS011;36110;51.536;7.562;2022-12-18T13:58:21;22.73;;;13.30;;
50219;SDS011;36110;51.536;7.562;2022-12-18T14:00:47;11.25;;;8.13;;
50219;SDS011;36110;51.536;7.562;2022-12-18T14:03:20;20.20;;;12.57;;
50219;SDS011;36110;51.536;7.562;2022-12-18T14:05:51;19.77;;;13.10;;
50219;SDS011;36110;51.536;7.562;2022-12-18T14:08:18;11.70;;;8.35;;
50219;SDS011;36110;51.536;7.562;2022-12-18T14:10:45;17.38;;;12.40;;
50219;SDS011;36110;51.536;7.562;2022-12-18T14:13:24;19.40;;;11.27;;
50219;SDS011;36110;51.536;7.562;2022-12-18T14:15:53;19.25;;;12.10;;
50219;SDS011;36110;51.536;7.562;2022-12-18T14:18:20;16.30;;;11.13;;
50219;SDS011;36110;51.536;7.562;2022-12-18T14:20:48;20.25;;;12.60;;
50219;SDS011;36110;51.536;7.562;2022-12-18T14:26:03;13.70;;;9.23;;
50219;SDS011;36110;51.536;7.562;2022-12-18T14:28:45;10.35;;;7.28;;
50219;SDS011;36110;51.536;7.562;2022-12-18T14:31:17;11.07;;;7.35;;
50219;SDS011;36110;51.536;7.562;2022-12-18T14:33:46;17.48;;;11.07;;
50219;SDS011;36110;51.536;7.562;2022-12-18T14:36:13;14.23;;;9.57;;
50219;SDS011;36110;51.536;7.562;2022-12-18T14:38:41;13.10;;;8.88;;
50219;SDS011;36110;51.536;7.562;2022-12-18T14:41:10;12.57;;;8.80;;
50219;SDS011;36110;51.536;7.562;2022-12-18T14:43:37;24.63;;;15.13;;
50219;SDS011;36110;51.536;7.562;2022-12-18T14:48:56;17.90;;;11.70;;
50219;SDS011;36110;51.536;7.562;2022-12-18T14:51:22;22.10;;;12.75;;
50219;SDS011;36110;51.536;7.562;2022-12-18T14:54:01;24.15;;;12.30;;
50219;SDS011;36110;51.536;7.562;2022-12-18T14:57:00;24.23;;;13.70;;
50219;SDS011;36110;51.536;7.562;2022-12-18T14:59:29;9.40;;;6.65;;
50219;SDS011;36110;51.536;7.562;2022-12-18T15:04:45;14.40;;;10.20;;
50219;SDS011;36110;51.536;7.562;2022-12-18T15:07:18;18.73;;;12.05;;
50219;SDS011;36110;51.536;7.562;2022-12-18T15:10:03;12.25;;;8.68;;
50219;SDS011;36110;51.536;7.562;2022-12-18T15:12:36;18.27;;;11.85;;
50219;SDS011;36110;51.536;7.562;2022-12-18T15:15:04;21.05;;;14.82;;
50219;SDS011;36110;51.536;7.562;2022-12-18T15:17:30;12.18;;;7.70;;
50219;SDS011;36110;51.536;7.562;2022-12-18T15:19:59;8.88;;;6.28;;
50219;SDS011;36110;51.536;7.562;2022-12-18T15:22:27;8.40;;;6.50;;
50219;SDS011;36110;51.536;7.562;2022-12-18T15:24:55;9.25;;;6.45;;
50219;SDS011;36110;51.536;7.562;2022-12-18T15:27:34;19.70;;;10.80;;
50219;SDS011;36110;51.536;7.562;2022-12-18T15:32:32;8.10;;;6.15;;
50219;SDS011;36110;51.536;7.562;2022-12-18T15:35:40;10.10;;;7.55;;
50219;SDS011;36110;51.536;7.562;2022-12-18T15:37:48;7.70;;;5.85;;
50219;SDS011;36110;51.536;7.562;2022-12-18T15:40:21;23.60;;;14.38;;
50219;SDS011;36110;51.536;7.562;2022-12-18T15:42:47;17.70;;;10.98;;
50219;SDS011;36110;51.536;7.562;2022-12-18T15:45:32;15.57;;;9.00;;
50219;SDS011;36110;51.536;7.562;2022-12-18T15:47:58;11.15;;;7.60;;
50219;SDS011;36110;51.536;7.562;2022-12-18T15:50:23;13.65;;;8.50;;
50219;SDS011;36110;51.536;7.562;2022-12-18T15:52:49;17.67;;;9.20;;
50219;SDS011;36110;51.536;7.562;2022-12-18T15:55:17;12.75;;;8.15;;
50219;SDS011;36110;51.536;7.562;2022-12-18T15:58:06;14.35;;;8.13;;
50219;SDS011;36110;51.536;7.562;2022-12-18T16:00:33;10.48;;;7.68;;
50219;SDS011;36110;51.536;7.562;2022-12-18T16:02:59;17.38;;;8.43;;
50219;SDS011;36110;51.536;7.562;2022-12-18T16:05:24;16.73;;;9.65;;
50219;SDS011;36110;51.536;7.562;2022-12-18T16:07:51;14.35;;;8.27;;
50219;SDS011;36110;51.536;7.562;2022-12-18T16:10:16;18.33;;;8.73;;
50219;SDS011;36110;51.536;7.562;2022-12-18T16:12:41;6.72;;;5.13;;
50219;SDS011;36110;51.536;7.562;2022-12-18T16:15:07;15.73;;;9.38;;
50219;SDS011;36110;51.536;7.562;2022-12-18T16:17:37;15.65;;;8.90;;
50219;SDS011;36110;51.536;7.562;2022-12-18T16:20:02;15.10;;;9.13;;